createdAt,value
2022-08-25T00:00:54.837Z,23.140643943352895
2022-08-25T00:07:18.524Z,23.10074466973247
2022-08-25T00:13:40.091Z,23.023263090510017
2022-08-25T00:20:01.315Z,22.92016421927255
2022-08-25T00:26:22.364Z,22.696013404055194
2022-08-25T00:32:43.472Z,22.61672175480769
2022-08-25T00:39:11.719Z,22.494090327132092
2022-08-25T00:45:32.406Z,22.452431281354464
2022-08-25T00:51:52.727Z,22.375092103887983
2022-08-25T00:58:13.324Z,22.305059834866224
2022-08-25T01:04:34.625Z,22.256691576086983
2022-08-25T01:11:16.353Z,22.09435684050999
2022-08-25T01:17:36.955Z,22.00596715614552
2022-08-25T01:24:04.892Z,21.874564956103697
2022-08-25T01:30:25.432Z,21.87821383779266
2022-08-25T01:36:45.958Z,21.76694515572741
2022-08-25T01:43:06.341Z,21.709477555392972
2022-08-25T01:49:27.195Z,21.658293922449815
2022-08-25T01:55:48.554Z,21.61357519857857
2022-08-25T02:02:09.585Z,21.584194058319397
2022-08-25T02:12:28.329Z,21.485867605560237
2022-08-25T02:18:49.527Z,21.475591816471606
2022-08-25T02:25:10.637Z,21.402475047031757
2022-08-25T02:31:43.546Z,21.389771895903024
2022-08-25T02:38:04.771Z,21.363091816471556
2022-08-25T02:44:25.641Z,21.256570077341156
2022-08-25T02:50:46.583Z,21.26275802153006
2022-08-25T03:03:16.346Z,21.13122256479934
2022-08-25T03:09:37.285Z,21.074367030727444
2022-08-25T03:21:16.245Z,20.953979410535098
2022-08-25T03:27:43.019Z,20.817971362876236
2022-08-25T03:37:43.276Z,20.737877560618735
2022-08-25T03:51:58.325Z,20.620192307692324
2022-08-25T04:03:53.263Z,20.48765154682271
2022-08-25T04:10:14.074Z,20.44022457671403
2022-08-25T04:16:35.478Z,20.36477320234113
2022-08-25T04:23:00.504Z,20.33045241952341
2022-08-25T04:29:24.396Z,20.269355534071938
2022-08-25T04:40:37.597Z,20.12458193979934
2022-08-25T04:46:58.821Z,20.054185827759188
2022-08-25T04:53:19.596Z,20.072477267976574
2022-08-25T04:59:40.449Z,20.058955633361187
2022-08-25T05:06:00.942Z,20.030313283862842
2022-08-25T05:12:22.003Z,20.085648123954808
2022-08-25T05:18:43.142Z,20.056445965719043
2022-08-25T05:25:13.782Z,20.088861308528404
2022-08-25T05:31:39.569Z,20.18585780727429
2022-08-25T05:47:06.867Z,20.30064342077759
2022-08-25T05:58:39.139Z,20.359178381061852
2022-08-25T06:05:01.507Z,20.4430523620401
2022-08-25T06:11:22.218Z,20.464472721571898
2022-08-25T06:17:43.792Z,20.59234819188966
2022-08-25T06:27:15.011Z,20.779443196070208
2022-08-25T06:33:36.363Z,21.099821671195663
2022-08-25T06:39:57.184Z,21.440106344063583
2022-08-25T06:46:52.092Z,21.65999098557693
2022-08-25T06:53:13.799Z,21.885373771948174
2022-08-25T06:59:35.659Z,22.055166309573558
2022-08-25T07:05:57.080Z,22.288684939381277
2022-08-25T07:12:19.345Z,22.462823343436412
2022-08-25T07:21:21.819Z,22.682385294732434
2022-08-25T07:27:47.169Z,22.83491259928925
2022-08-25T07:37:52.324Z,22.98820743624586
2022-08-25T07:46:35.753Z,23.272415865384563
2022-08-25T07:52:57.613Z,23.44564433528432
2022-08-25T08:00:47.152Z,23.721664663461567
2022-08-25T08:07:12.113Z,23.967764292433074
2022-08-25T08:37:36.462Z,24.892567020275926
2022-08-25T08:45:44.018Z,25.13452785326089
2022-08-25T08:52:05.411Z,25.416714569397964
2022-08-25T08:58:26.987Z,25.649553198160532
2022-08-25T09:04:48.303Z,25.85248876463206
2022-08-25T09:11:10.470Z,25.954089804556872
2022-08-25T09:18:39.001Z,26.130078125
2022-08-25T09:18:51.259Z,26.1146484375
2022-08-25T09:18:54.727Z,26.1146484375
2022-08-25T09:18:57.271Z,26.094140625
2022-08-25T09:18:59.303Z,26.094140625
2022-08-25T09:19:01.308Z,26.09921875
2022-08-25T09:19:03.325Z,26.094140625
2022-08-25T09:19:05.293Z,26.1044921875
2022-08-25T09:19:08.743Z,26.0787109375
2022-08-25T09:19:59.354Z,26.1865234375
2022-08-25T09:20:02.586Z,26.20703125
2022-08-25T09:20:06.166Z,26.212109375
2022-08-25T09:20:30.108Z,26.263476562500003
2022-08-25T09:23:20.964Z,26.221301473662162
2022-08-25T09:29:44.199Z,26.405528192934817
2022-08-25T09:42:23.670Z,26.56123210179768
2022-08-25T09:48:48.520Z,26.629851457984945
2022-08-25T10:01:02.877Z,26.623982284698975
2022-08-25T10:07:26.351Z,26.490197141513384
2022-08-25T10:13:49.193Z,27.117890363712394
2022-08-25T10:20:13.596Z,27.044033497073553
2022-08-25T10:32:53.601Z,27.311810200668848
2022-08-25T10:51:35.683Z,27.408431751672254
2022-08-25T10:58:00.225Z,27.81171025815217
2022-08-25T11:08:28.325Z,28.258337688127124
2022-08-25T11:14:51.185Z,28.46453739025919
2022-08-25T11:21:14.615Z,28.757346101588627
2022-08-25T11:27:37.889Z,28.78722303511706
2022-08-25T11:39:34.411Z,28.478367344272623
2022-08-25T11:45:55.411Z,28.147385164088643
2022-08-25T11:54:55.589Z,28.73087570547658
2022-08-25T12:01:19.808Z,28.758929504598694
2022-08-25T12:07:41.811Z,29.183687813545177
2022-08-25T12:14:03.244Z,29.442793034071897
2022-08-25T12:22:04.291Z,29.55663082671404
2022-08-25T12:28:25.476Z,29.579810305183965
2022-08-25T12:39:09.704Z,29.43027147784282
2022-08-25T12:45:30.438Z,28.6334800898829
2022-08-25T12:51:51.989Z,28.358120166178924
2022-08-25T13:06:22.749Z,28.35593384197324
2022-08-25T13:12:44.067Z,29.011456809155504
2022-08-25T13:20:37.933Z,29.228324885033427
2022-08-25T13:26:58.691Z,28.683839360367884
2022-08-25T13:33:20.501Z,28.668795072115362
2022-08-25T13:39:55.866Z,28.470290290551777
2022-08-25T13:52:46.731Z,28.640074989548488
2022-08-25T13:59:09.891Z,28.418810096153837
2022-08-25T14:05:30.553Z,28.666389266304332
2022-08-25T14:11:53.759Z,28.78206064485784
2022-08-25T14:18:15.458Z,28.536991142349482
2022-08-25T14:24:40.885Z,28.665624346780966
2022-08-25T14:31:05.306Z,28.709305758779216
2022-08-25T14:50:41.026Z,28.50209030100334
2022-08-25T14:57:10.479Z,28.458369042642108
2022-08-25T15:03:33.689Z,28.555929922658894
2022-08-25T15:09:58.268Z,28.495171404682296
2022-08-25T15:16:23.961Z,28.430401468436447
2022-08-25T15:22:57.008Z,28.375478809573558
2022-08-25T15:30:04.242Z,28.34710885242475
2022-08-25T15:36:30.965Z,28.36220605142145
2022-08-25T15:45:46.859Z,28.22905845004184
2022-08-25T15:52:09.976Z,28.165283366429744
2022-08-25T15:58:31.292Z,27.930820835075245
2022-08-25T16:04:53.292Z,27.80852189590298
2022-08-25T16:17:36.831Z,27.922330293687317
2022-08-25T16:30:45.338Z,27.874700825668867
2022-08-25T16:37:14.655Z,27.75362144648826
2022-08-25T16:57:59.835Z,27.5990815739967
2022-08-25T17:05:14.192Z,27.586237980769262
2022-08-25T17:12:26.579Z,27.485330006270928
2022-08-25T17:18:48.387Z,27.60076883883784
2022-08-25T17:25:18.794Z,27.590429687500013
2022-08-25T17:31:40.651Z,27.482542720526762
2022-08-25T17:42:30.690Z,27.322475961538455
2022-08-25T17:48:53.482Z,27.18160469795153
2022-08-25T17:55:16.328Z,27.09895811559363
2022-08-25T18:07:19.027Z,26.94814224498322
2022-08-25T18:13:42.034Z,26.874382707984992
2022-08-25T18:20:04.068Z,26.763081364966563
2022-08-25T18:31:28.017Z,26.55706260451505
2022-08-25T18:37:53.812Z,26.460331312709023
2022-08-25T18:49:45.903Z,26.31263325668893
2022-08-25T18:56:45.879Z,26.22117670882107
2022-08-25T19:03:10.749Z,26.14089935200675
2022-08-25T19:13:32.800Z,26.024500940635452
2022-08-25T19:20:02.242Z,25.937669183737434
2022-08-25T19:26:34.285Z,25.86267898202339
2022-08-25T19:33:02.013Z,25.831308136496652
2022-08-25T19:39:52.994Z,25.720255669941462
2022-08-25T19:46:40.181Z,25.656059913252527
2022-08-25T19:53:35.396Z,25.606979645693947
2022-08-25T20:07:30.244Z,25.44917955685616
2022-08-25T20:14:12.547Z,25.36978077968232
2022-08-25T20:21:04.814Z,25.29691223348666
2022-08-25T20:37:41.763Z,25.182011000209027
2022-08-25T20:44:24.488Z,25.1144733747909
2022-08-25T20:54:50.470Z,25.029788095735807
2022-08-25T21:08:45.195Z,24.928895145275938
2022-08-25T21:15:18.180Z,24.87780296300168
2022-08-25T21:22:17.620Z,24.838040212165517
2022-08-25T21:28:47.583Z,24.765791570861197
2022-08-25T21:52:07.718Z,24.553524770066936
2022-08-25T21:58:28.925Z,24.50053890572744
2022-08-25T22:04:50.258Z,24.498645223662212
2022-08-25T22:11:11.232Z,24.525214255852863
2022-08-25T22:21:42.105Z,24.480307404891317
2022-08-25T22:28:14.446Z,24.426003997700654
2022-08-25T22:34:40.099Z,24.374815792224062
2022-08-25T22:41:01.860Z,24.379742370401303
2022-08-25T22:49:17.775Z,24.300141095317763
2022-08-25T22:55:38.911Z,24.268282295150527
2022-08-25T23:02:00.462Z,24.232717783235795
2022-08-25T23:08:27.112Z,24.138255774456525
2022-08-25T23:19:51.238Z,24.11745662625415
2022-08-25T23:26:13.927Z,24.033378187709
2022-08-25T23:40:09.736Z,23.934264605978218
2022-08-25T23:46:31.667Z,23.869907504180627
2022-08-25T23:56:24.119Z,23.818912651546864
